Kolmaarden Stroemsfors, Sweden

7:53 AM CEST on July 31, 2015 (GMT +0200)
kolmarden | | Change Station
CLOSE
Current Station
Personal Weather Station
Location: Östergötlands Län, ÖSTERGöTLANDS LäN
Elevation: 121 ft
Nearby Weather Stations

Elev 121 ft 58.66 °N, 16.39 °E | Updated 23 minutes ago

Scattered Clouds
Scattered Clouds
57.7 °F
Feels Like 57.7 °F
N
0.0
Wind Variable Wind from North
Gusts 0.9 mph

Today
High -- | Low -- °F
--% Chance of Precip.
Yesterday
High -- | Low -- °F
Precip. -- in
4:40 AM 9:19 PM
Full, 100% visible
Pressure 29.68 in
Visibility 6.2 miles
Clouds Few 600 ft
Scattered Clouds 1800 ft
Dew Point 55 °F
Humidity 92%
Rainfall 0.00 in
Snow Depth Not available.
UV 1 out of 12
Pollen Not available.
Air Quality Not available.
Flu Activity Not available.
METAR ESSP 310520Z 28004KT 9999 FEW006 SCT018 14/14 Q1005

More Conditions Fewer Conditions

Pressure 29.68 in
Visibility 6.2 miles
Clouds Few 600 ft
Scattered Clouds 1800 ft
Dew Point 55 °F
Humidity 92%
Rainfall 0.00 in
Snow Depth Not available.
UV 1 out of 12
Pollen Not available.
Air Quality Not available.
Flu Activity Not available.
METAR ESSP 310520Z 28004KT 9999 FEW006 SCT018 14/14 Q1005

More Conditions Fewer Conditions

10-Day Weather Forecast

×

Almanac

Astronomy

Jul. 31, 2015 Rise Set
Actual Time
Civil Twilight
Nautical Twilight
Astronomical Twilight
Moon
Length of Visible Light
Length of Day
Tomorrow will be .
, % of the Moon is Illuminated

Today's Extremes

Country Highs Country Lows

Community

WunderPhotos

Upload Photos

1,842,632 photos uploaded!

WunderBlogs® & News

Nearby

Air Quality

  Air Quality AQ Index Pollutant
Not available.

Snow Depth

Station Depth Elevation

Earthquake Activity

City Distance Mag. Time & Date
Minimum magnitude displayed is 2.5.

Coastal Water Temperatures

Place Temperature

Stations

Nearby Weather Stations

Station Location Temp. Windchill Dew Point Humidity Wind Precip. Elev Updated Type